createdAt,value
2018-12-21T00:00:14.736Z,22.4
2018-12-21T00:01:04.794Z,22.4
2018-12-21T00:32:36.712Z,21.9
2018-12-21T00:33:27.535Z,22
2018-12-21T00:34:17.285Z,21.9
2018-12-21T00:35:07.605Z,21.9
2018-12-21T00:35:57.112Z,21.9
2018-12-21T00:36:46.135Z,21.9
2018-12-21T00:37:37.899Z,21.9
2018-12-21T00:38:27.007Z,21.9
2018-12-21T00:39:17.701Z,21.9
2018-12-21T00:40:07.650Z,21.9
2018-12-21T00:40:57.714Z,21.9
2018-12-21T00:41:46.939Z,21.9
2018-12-21T00:42:36.734Z,21.9
2018-12-21T00:43:27.671Z,21.9
2018-12-21T00:44:17.671Z,21.9
2018-12-21T00:45:07.687Z,21.9
2018-12-21T00:45:57.779Z,21.8
2018-12-21T00:46:47.288Z,21.9
2018-12-21T00:47:38.202Z,21.8
2018-12-21T00:48:29.084Z,21.8
2018-12-21T00:49:17.526Z,21.8
2018-12-21T00:50:08.449Z,21.8
2018-12-21T00:50:57.838Z,21.8
2018-12-21T00:51:47.801Z,21.8
2018-12-21T00:52:38.766Z,21.8
2018-12-21T00:53:28.952Z,21.8
2018-12-21T00:54:17.786Z,21.8
2018-12-21T00:55:07.966Z,21.8
2018-12-21T00:55:57.063Z,21.8
2018-12-21T00:56:47.678Z,21.8
2018-12-21T00:57:38.568Z,21.8
2018-12-21T00:58:28.660Z,21.8
2018-12-21T00:59:18.690Z,21.8
2018-12-21T01:00:08.291Z,21.8
2018-12-21T01:00:59.071Z,21.8
2018-12-21T01:01:48.848Z,21.7
2018-12-21T01:02:38.905Z,21.7
2018-12-21T01:03:28.996Z,21.7
2018-12-21T01:04:19.087Z,21.7
2018-12-21T01:05:08.850Z,21.7
2018-12-21T01:05:58.875Z,21.7
2018-12-21T01:06:48.060Z,21.7
2018-12-21T01:07:38.717Z,21.7
2018-12-21T01:08:29.935Z,21.7
2018-12-21T01:09:19.605Z,21.7
2018-12-21T01:10:10.055Z,21.7
2018-12-21T01:10:58.990Z,21.7
2018-12-21T01:11:48.802Z,21.7
2018-12-21T01:12:39.212Z,21.6
2018-12-21T01:13:29.184Z,21.6
2018-12-21T01:14:19.320Z,21.6
2018-12-21T01:15:08.477Z,21.6
2018-12-21T01:15:58.572Z,21.6
2018-12-21T01:16:48.920Z,21.6
2018-12-21T01:17:39.525Z,21.6
2018-12-21T01:18:29.888Z,21.6
2018-12-21T01:19:19.667Z,21.6
2018-12-21T01:20:09.109Z,21.6
2018-12-21T01:20:59.140Z,21.6
2018-12-21T01:21:49.732Z,21.6
2018-12-21T01:22:39.792Z,21.6
2018-12-21T01:23:29.301Z,21.5
2018-12-21T01:24:19.899Z,21.5
2018-12-21T01:25:09.647Z,21.5
2018-12-21T01:26:01.061Z,21.5
2018-12-21T01:26:50.651Z,21.5
2018-12-21T01:27:39.794Z,21.5
2018-12-21T01:28:30.920Z,21.5
2018-12-21T01:29:19.888Z,21.5
2018-12-21T01:30:10.826Z,21.5
2018-12-21T01:31:01.138Z,21.5
2018-12-21T01:31:51.473Z,21.5
2018-12-21T01:32:40.413Z,21.5
2018-12-21T01:33:30.467Z,21.5
2018-12-21T01:34:21.469Z,21.5
2018-12-21T01:35:10.851Z,21.4
2018-12-21T01:36:00.745Z,21.4
2018-12-21T01:36:51.545Z,21.4
2018-12-21T01:37:41.112Z,21.4
2018-12-21T01:38:31.310Z,21.4
2018-12-21T01:39:21.425Z,21.4
2018-12-21T01:40:11.770Z,21.4
2018-12-21T01:41:01.547Z,21.4
2018-12-21T01:41:51.565Z,21.4
2018-12-21T01:42:41.918Z,21.4
2018-12-21T01:43:31.772Z,21.4
2018-12-21T01:44:22.090Z,21.4
2018-12-21T01:45:12.920Z,21.4
2018-12-21T01:46:02.156Z,21.4
2018-12-21T01:46:51.350Z,21.4
2018-12-21T01:47:41.994Z,21.4
2018-12-21T01:48:32.043Z,21.4
2018-12-21T01:49:22.082Z,21.4
2018-12-21T01:50:12.755Z,21.4
2018-12-21T01:51:02.617Z,21.3
2018-12-21T01:51:54.467Z,21.3
2018-12-21T01:52:42.036Z,21.3
2018-12-21T01:53:32.688Z,21.3
2018-12-21T01:54:22.780Z,21.3
2018-12-21T01:55:12.294Z,21.3
2018-12-21T01:56:02.528Z,21.3
2018-12-21T01:56:52.866Z,21.3
2018-12-21T01:57:43.299Z,21.3
2018-12-21T01:58:32.694Z,21.3
2018-12-21T01:59:23.059Z,21.3
2018-12-21T02:00:13.367Z,21.3
2018-12-21T02:01:03.464Z,21.3
2018-12-21T02:01:52.202Z,21.3
2018-12-21T02:02:42.178Z,21.3
2018-12-21T02:03:31.997Z,21.3
2018-12-21T02:04:23.394Z,21.3
2018-12-21T02:05:13.705Z,21.3
2018-12-21T02:06:02.915Z,21.3
2018-12-21T02:06:53.045Z,21.3
2018-12-21T02:07:43.336Z,21.3
2018-12-21T02:08:33.632Z,21.3
2018-12-21T02:09:22.715Z,21.3
2018-12-21T02:10:13.772Z,21.3
2018-12-21T02:11:03.342Z,21.3
2018-12-21T02:11:53.880Z,21.3
2018-12-21T02:12:43.664Z,21.3
2018-12-21T02:13:33.762Z,21.2
2018-12-21T02:14:23.504Z,21.3
2018-12-21T02:15:13.119Z,21.2
2018-12-21T02:16:04.140Z,21.2
2018-12-21T02:16:54.258Z,21.2
2018-12-21T02:17:43.464Z,21.2
2018-12-21T02:18:34.089Z,21.2
2018-12-21T02:19:23.847Z,21.2
2018-12-21T02:21:04.499Z,21.2
2018-12-21T02:22:03.727Z,21.2
2018-12-21T02:22:44.126Z,21.2
2018-12-21T02:25:14.239Z,22.1
2018-12-21T02:26:04.433Z,26.9
2018-12-21T02:26:54.956Z,30.6
2018-12-21T02:27:44.989Z,33.1
2018-12-21T02:28:35.041Z,34.8
2018-12-21T02:29:24.594Z,36
2018-12-21T02:30:15.089Z,37
2018-12-21T02:31:05.517Z,37.6
2018-12-21T02:31:55.164Z,37.7
2018-12-21T02:32:44.433Z,37.2
2018-12-21T02:33:35.021Z,36.7
2018-12-21T02:34:25.214Z,36.4
2018-12-21T02:35:14.951Z,36.1
2018-12-21T02:36:05.464Z,35.9
2018-12-21T02:36:55.689Z,35.6
2018-12-21T02:37:45.254Z,35.3
2018-12-21T02:38:35.256Z,34.8
2018-12-21T02:39:25.716Z,34
2018-12-21T02:40:14.761Z,33.9
2018-12-21T02:41:05.698Z,36.3
2018-12-21T02:41:56.238Z,37.8
2018-12-21T02:42:45.238Z,38.7
2018-12-21T02:43:35.953Z,39.3
2018-12-21T02:44:25.143Z,39.6
2018-12-21T02:45:16.505Z,39.7
2018-12-21T02:46:06.319Z,39.6
2018-12-21T02:46:56.478Z,38.5
2018-12-21T02:47:45.256Z,37.6
2018-12-21T02:48:36.645Z,37
2018-12-21T02:49:24.713Z,36.6
2018-12-21T02:50:15.815Z,36.3
2018-12-21T02:51:06.618Z,37.4
2018-12-21T02:52:06.479Z,38.6
2018-12-21T02:52:46.838Z,39.3
2018-12-21T02:53:36.200Z,39.6
2018-12-21T02:54:26.865Z,39.8
2018-12-21T02:55:16.925Z,39.4
2018-12-21T02:56:06.083Z,38.3
2018-12-21T02:56:56.704Z,37.4
2018-12-21T02:57:46.807Z,36.8
2018-12-21T02:58:37.080Z,37.6
2018-12-21T02:59:26.694Z,38.7
2018-12-21T03:00:16.655Z,39.2
2018-12-21T03:01:06.914Z,39.4
2018-12-21T03:01:57.392Z,39.1
2018-12-21T03:02:46.621Z,37.9
2018-12-21T03:03:36.042Z,37.3
2018-12-21T03:04:27.519Z,36.7
2018-12-21T03:05:17.886Z,37.5
2018-12-21T03:06:06.647Z,38.7
2018-12-21T03:06:57.495Z,39.3
2018-12-21T03:07:47.983Z,39.6
2018-12-21T03:08:36.369Z,39.7
2018-12-21T03:09:28.154Z,39.1
2018-12-21T03:10:17.674Z,38
2018-12-21T03:11:07.774Z,37.3
2018-12-21T03:11:57.241Z,36.8
2018-12-21T03:12:48.732Z,37.6
2018-12-21T03:13:37.829Z,38.8
2018-12-21T03:14:28.511Z,39.4
2018-12-21T03:15:18.461Z,39.6
2018-12-21T03:16:08.431Z,39.8
2018-12-21T03:16:58.157Z,38.9
2018-12-21T03:17:47.879Z,37.9
2018-12-21T03:18:38.489Z,37.2
2018-12-21T03:19:27.756Z,38
2018-12-21T03:20:18.041Z,39
2018-12-21T03:21:07.746Z,39.6
2018-12-21T03:21:58.147Z,39.8
2018-12-21T03:22:48.410Z,39.9
2018-12-21T03:23:39.111Z,39.7
2018-12-21T03:24:28.063Z,38.4
2018-12-21T03:25:18.714Z,37.6
2018-12-21T03:26:09.073Z,37.1
2018-12-21T03:26:58.495Z,38.4
2018-12-21T03:27:48.806Z,39.3
2018-12-21T03:28:38.600Z,39.6
2018-12-21T03:29:29.201Z,39.8
2018-12-21T03:30:19.879Z,39.9
2018-12-21T03:31:08.949Z,39
2018-12-21T03:31:58.541Z,38
2018-12-21T03:32:48.374Z,37.3
2018-12-21T03:33:39.053Z,37.3
2018-12-21T03:34:30.090Z,38.7
2018-12-21T03:35:19.491Z,39.5
2018-12-21T03:36:10.087Z,39.6
2018-12-21T03:36:59.415Z,39.9
2018-12-21T03:37:49.357Z,39.8
2018-12-21T03:38:40.293Z,38.6
2018-12-21T03:39:29.582Z,37.7
2018-12-21T03:40:20.642Z,37.3
2018-12-21T03:41:09.730Z,38.6
2018-12-21T03:41:59.533Z,39.4
2018-12-21T03:42:49.855Z,39.8
2018-12-21T03:43:39.594Z,39.9
2018-12-21T03:44:29.662Z,40.1
2018-12-21T03:45:20.003Z,39.5
2018-12-21T03:46:09.794Z,38.4
2018-12-21T03:47:00.370Z,37.6
2018-12-21T03:47:50.197Z,37.1
2018-12-21T03:48:39.933Z,38.4
2018-12-21T03:49:30.829Z,39.3
2018-12-21T03:50:20.070Z,39.8
2018-12-21T03:51:10.937Z,40.2
2018-12-21T03:52:00.251Z,40.3
2018-12-21T03:52:50.274Z,40.3
2018-12-21T03:53:40.803Z,39.7
2018-12-21T03:54:30.417Z,38.6
2018-12-21T03:55:20.820Z,37.8
2018-12-21T03:56:10.756Z,37.2
2018-12-21T03:57:00.229Z,38.3
2018-12-21T03:57:50.037Z,39.2
2018-12-21T03:58:40.145Z,39.6
2018-12-21T03:59:30.936Z,39.8
2018-12-21T04:00:21.684Z,39.9
2018-12-21T04:01:10.332Z,38.9
2018-12-21T04:02:00.911Z,38.1
2018-12-21T04:02:51.506Z,37.4
2018-12-21T04:03:40.419Z,38.3
2018-12-21T04:04:31.848Z,39.3
2018-12-21T04:05:21.626Z,39.9
2018-12-21T04:06:11.413Z,40.2
2018-12-21T04:07:01.766Z,40.4
2018-12-21T04:07:51.251Z,40.3
2018-12-21T04:08:41.672Z,39.8
2018-12-21T04:09:31.515Z,38.6
2018-12-21T04:10:21.976Z,37.8
2018-12-21T04:11:11.011Z,37.3
2018-12-21T04:12:02.156Z,38.6
2018-12-21T04:12:51.378Z,39.6
2018-12-21T04:13:41.408Z,40
2018-12-21T04:14:31.993Z,40.3
2018-12-21T04:15:22.023Z,40.4
2018-12-21T04:16:11.603Z,40.5
2018-12-21T04:17:02.498Z,40.4
2018-12-21T04:17:52.625Z,39.4
2018-12-21T04:18:42.582Z,38.4
2018-12-21T04:19:32.627Z,37.8
2018-12-21T04:20:22.155Z,38.2
2018-12-21T04:21:11.670Z,39.3
2018-12-21T04:22:01.984Z,39.9
2018-12-21T04:22:51.997Z,40.3
2018-12-21T04:23:42.353Z,40.6
2018-12-21T04:24:32.639Z,40.6
2018-12-21T04:25:23.458Z,40.6
2018-12-21T04:26:12.262Z,40.1
2018-12-21T04:27:03.366Z,38.9
2018-12-21T04:27:53.183Z,38.1
2018-12-21T04:28:42.507Z,38.1
2018-12-21T04:29:33.040Z,39.3
2018-12-21T04:30:24.007Z,39.9
2018-12-21T04:31:12.077Z,40.3
2018-12-21T04:32:02.494Z,40.4
2018-12-21T04:32:53.043Z,40.6
2018-12-21T04:33:42.516Z,40.5
2018-12-21T04:34:32.595Z,39.8
2018-12-21T04:35:22.971Z,38.8
2018-12-21T04:36:13.409Z,38
2018-12-21T04:37:03.621Z,38.2
2018-12-21T04:37:53.656Z,39.4
2018-12-21T04:38:43.150Z,39.9
2018-12-21T04:39:33.544Z,40.3
2018-12-21T04:40:23.841Z,40.5
2018-12-21T04:41:14.063Z,40.6
2018-12-21T04:42:04.446Z,40.6
2018-12-21T04:42:53.623Z,39.4
2018-12-21T04:43:43.703Z,38.4
2018-12-21T04:44:34.327Z,38.1
2018-12-21T05:01:54.865Z,40.7
2018-12-21T05:02:58.225Z,39.2
2018-12-21T05:04:19.918Z,38.3
2018-12-21T05:04:31.459Z,39.9
2018-12-21T05:05:39.418Z,40.2
2018-12-21T05:06:26.877Z,40.6
2018-12-21T05:07:01.556Z,40.8
2018-12-21T05:08:06.096Z,40.9
2018-12-21T05:08:41.442Z,40.9
2018-12-21T09:16:20.875Z,39.3
2018-12-21T09:17:11.316Z,38.6
2018-12-21T09:18:01.372Z,37.6
2018-12-21T09:18:51.706Z,37.1
2018-12-21T09:19:42.031Z,36.6
2018-12-21T09:20:30.986Z,36.3
2018-12-21T09:21:22.773Z,36
2018-12-21T09:22:11.943Z,37.2
2018-12-21T09:23:01.971Z,38.2
2018-12-21T09:23:52.281Z,38.8
2018-12-21T09:24:42.631Z,39.2
2018-12-21T09:25:31.923Z,39.3
2018-12-21T09:26:22.478Z,39.4
2018-12-21T09:27:12.258Z,38.4
2018-12-21T09:28:02.025Z,37.6
2018-12-21T09:28:51.241Z,37
2018-12-21T09:29:42.387Z,36.5
2018-12-21T09:30:33.042Z,37.7
2018-12-21T09:31:22.311Z,38.6
2018-12-21T09:32:13.140Z,39.1
2018-12-21T09:33:01.802Z,39.4
2018-12-21T09:33:52.697Z,39.5
2018-12-21T09:34:43.005Z,38.6
2018-12-21T09:35:33.090Z,37.7
2018-12-21T09:36:22.312Z,37.1
2018-12-21T09:37:13.565Z,37.4
2018-12-21T09:38:02.988Z,38.6
2018-12-21T09:38:52.765Z,39.1
2018-12-21T09:39:42.790Z,39.3
2018-12-21T09:40:32.964Z,39.4
2018-12-21T09:41:23.007Z,39.3
2018-12-21T09:42:13.242Z,38.1
2018-12-21T09:43:02.760Z,37.4
2018-12-21T09:43:53.444Z,36.8
2018-12-21T09:44:43.151Z,38.1
2018-12-21T09:45:32.921Z,39
2018-12-21T09:46:23.819Z,39.3
2018-12-21T09:47:13.926Z,39.5
2018-12-21T09:48:03.542Z,39.6
2018-12-21T09:48:53.164Z,38.8
2018-12-21T09:49:43.491Z,37.9
2018-12-21T09:50:34.704Z,37.2
2018-12-21T09:51:23.886Z,38.1
2018-12-21T09:52:14.210Z,38.9
2018-12-21T09:53:03.181Z,39.3
2018-12-21T09:53:52.989Z,39.5
2018-12-21T09:54:43.809Z,39.5
2018-12-21T09:55:34.458Z,38.8
2018-12-21T09:56:23.658Z,37.9
2018-12-21T09:57:14.051Z,37.3
2018-12-21T09:58:04.388Z,37.2
2018-12-21T09:58:54.408Z,38.4
2018-12-21T09:59:43.901Z,39.1
2018-12-21T10:00:34.240Z,39.4
2018-12-21T10:01:24.276Z,39.6
2018-12-21T10:02:14.565Z,39.6
2018-12-21T10:03:04.138Z,39.4
2018-12-21T10:03:54.458Z,38.4
2018-12-21T10:04:44.313Z,37.7
2018-12-21T10:05:34.624Z,37.1
2018-12-21T10:06:25.245Z,38.1
2018-12-21T10:07:14.947Z,38.9
2018-12-21T10:08:04.350Z,39.4
2018-12-21T10:08:55.115Z,39.6
2018-12-21T10:09:45.392Z,39.8
2018-12-21T10:10:35.837Z,39.6
2018-12-21T10:11:25.065Z,38.6
2018-12-21T10:12:14.979Z,37.8
2018-12-21T10:13:05.378Z,37.3
2018-12-21T10:13:55.827Z,38.2
2018-12-21T10:14:45.443Z,39
2018-12-21T10:15:35.967Z,39.4
2018-12-21T10:16:25.602Z,39.6
2018-12-21T10:17:15.992Z,39.7
2018-12-21T10:18:06.554Z,39.5
2018-12-21T10:18:55.199Z,38.4
2018-12-21T10:19:45.254Z,37.7
2018-12-21T10:20:36.140Z,37.2
2018-12-21T10:21:26.174Z,37.6
2018-12-21T10:22:15.197Z,38.7
2018-12-21T10:23:06.770Z,39.3
2018-12-21T10:23:55.890Z,39.5
2018-12-21T10:24:45.654Z,39.7
2018-12-21T10:25:35.704Z,39.7
2018-12-21T10:26:25.884Z,39.1
2018-12-21T10:27:15.339Z,38.2
2018-12-21T10:28:05.901Z,37.6
2018-12-21T10:28:56.179Z,37.7
2018-12-21T10:29:45.984Z,38.8
2018-12-21T10:30:35.056Z,39.3
2018-12-21T10:31:26.563Z,39.6
2018-12-21T10:32:17.151Z,39.8
2018-12-21T10:33:06.409Z,39.9
2018-12-21T10:33:57.623Z,39.4
2018-12-21T10:34:47.392Z,38.3
2018-12-21T10:35:36.571Z,37.6
2018-12-21T10:36:26.473Z,37.9
2018-12-21T10:37:18.685Z,38.9
2018-12-21T10:38:07.288Z,39.5
2018-12-21T10:38:57.643Z,39.7
2018-12-21T10:39:47.254Z,39.8
2018-12-21T10:40:36.710Z,39.8
2018-12-21T10:41:27.325Z,39.2
2018-12-21T10:42:17.305Z,38.3
2018-12-21T10:43:07.489Z,37.8
2018-12-21T10:43:57.451Z,37.9
2018-12-21T10:44:47.781Z,38.9
2018-12-21T10:45:46.233Z,39.4
2018-12-21T10:46:27.577Z,39.8
2018-12-21T10:47:17.629Z,39.8
2018-12-21T10:48:08.003Z,39.7
2018-12-21T10:48:57.827Z,38.6
2018-12-21T10:49:47.833Z,37.9
2018-12-21T10:50:38.216Z,37.5
2018-12-21T10:51:27.911Z,38.6
2018-12-21T10:52:17.533Z,39.4
2018-12-21T10:53:07.597Z,39.6
2018-12-21T10:53:58.069Z,39.8
2018-12-21T10:54:48.494Z,39.9
2018-12-21T10:55:38.293Z,39.9
2018-12-21T10:56:27.980Z,38.9
2018-12-21T10:57:18.318Z,38.2
2018-12-21T10:58:09.133Z,37.6
2018-12-21T10:58:59.048Z,38.2
2018-12-21T10:59:50.940Z,39.1
2018-12-21T11:00:38.915Z,39.6
2018-12-21T11:01:28.638Z,39.9
2018-12-21T11:02:18.448Z,39.9
2018-12-21T11:03:08.410Z,40
2018-12-21T11:03:57.635Z,39.8
2018-12-21T11:04:49.095Z,38.8
2018-12-21T11:05:39.159Z,38
2018-12-21T11:06:28.652Z,37.6
2018-12-21T11:07:19.004Z,38.8
2018-12-21T11:08:09.323Z,39.4
2018-12-21T11:08:58.535Z,39.8
2018-12-21T11:09:49.415Z,39.9
2018-12-21T11:10:39.512Z,40
2018-12-21T11:11:29.260Z,39.9
2018-12-21T11:12:18.827Z,39.1
2018-12-21T11:13:08.815Z,38.3
2018-12-21T11:13:59.687Z,37.8
2018-12-21T11:14:48.907Z,37.9
2018-12-21T11:15:39.857Z,38.9
2018-12-21T11:16:29.310Z,39.5
2018-12-21T11:17:19.152Z,39.8
2018-12-21T11:18:09.207Z,40
2018-12-21T11:18:58.160Z,40.1
2018-12-21T11:19:49.259Z,40.1
2018-12-21T11:20:40.192Z,39.1
2018-12-21T11:21:29.762Z,38.3
2018-12-21T11:22:19.886Z,37.9
2018-12-21T11:23:09.792Z,39
2018-12-21T11:23:59.814Z,39.6
2018-12-21T11:24:49.864Z,39.9
2018-12-21T11:25:39.971Z,40.1
2018-12-21T11:26:30.559Z,40.1
2018-12-21T11:27:20.399Z,40.2
2018-12-21T11:28:10.489Z,39.8
2018-12-21T11:29:00.383Z,38.8
2018-12-21T11:29:52.774Z,38.1
2018-12-21T11:30:40.624Z,38.4
2018-12-21T11:31:30.149Z,39.3
2018-12-21T11:32:20.221Z,39.9
2018-12-21T11:33:11.011Z,40.1
2018-12-21T11:34:01.378Z,40.3
2018-12-21T11:34:49.991Z,40.3
2018-12-21T11:35:40.951Z,40.2
2018-12-21T11:36:30.936Z,39.6
2018-12-21T11:37:20.765Z,38.6
2018-12-21T11:38:10.785Z,37.9
2018-12-21T11:39:01.078Z,37.5
2018-12-21T11:39:51.440Z,37.1
2018-12-21T11:40:41.561Z,36.8
2018-12-21T11:41:31.971Z,36.6
2018-12-21T11:42:21.425Z,36.3
2018-12-21T11:43:11.115Z,36.6
2018-12-21T11:44:00.705Z,37.9
2018-12-21T11:44:51.223Z,38.4
2018-12-21T11:45:42.123Z,38.2
2018-12-21T11:46:31.625Z,37.5
2018-12-21T11:47:21.673Z,37.1
2018-12-21T11:48:10.743Z,36.7
2018-12-21T11:49:02.751Z,36.4
2018-12-21T11:49:52.163Z,36.1
2018-12-21T11:50:41.497Z,35.7
2018-12-21T11:51:31.598Z,35.2
2018-12-21T11:52:21.992Z,34.6
2018-12-21T11:53:12.340Z,34
2018-12-21T11:54:02.382Z,33.4
2018-12-21T11:54:52.192Z,32.8
2018-12-21T11:55:42.231Z,32.3
2018-12-21T11:56:32.627Z,31.7
2018-12-21T11:57:22.472Z,31.3
2018-12-21T11:58:12.132Z,30.9
2018-12-21T11:59:01.375Z,30.5
2018-12-21T11:59:52.650Z,30.3
2018-12-21T12:00:43.157Z,29.9
2018-12-21T12:01:31.897Z,29.7
2018-12-21T12:02:27.295Z,29.4
2018-12-21T12:03:12.747Z,29.2
2018-12-21T12:04:03.183Z,29
2018-12-21T12:04:52.854Z,28.8
2018-12-21T12:05:42.382Z,28.6
2018-12-21T12:06:32.954Z,28.5
2018-12-21T12:07:22.899Z,28.4
2018-12-21T12:08:12.816Z,28.3
2018-12-21T12:09:12.224Z,28.1
2018-12-21T12:09:53.190Z,28
2018-12-21T12:10:44.121Z,27.9
2018-12-21T12:11:33.566Z,27.9
2018-12-21T12:12:23.642Z,27.8
2018-12-21T12:13:12.589Z,27.7
2018-12-21T12:14:02.383Z,27.6
2018-12-21T12:14:53.816Z,27.6
2018-12-21T12:15:43.946Z,27.5
2018-12-21T12:16:33.926Z,27.5
2018-12-21T12:17:23.710Z,27.4
2018-12-21T12:18:12.756Z,27.4
2018-12-21T12:19:02.706Z,27.3
2018-12-21T12:19:54.098Z,27.3
2018-12-21T12:20:43.715Z,27.3
2018-12-21T12:21:34.298Z,27.3
2018-12-21T12:22:23.746Z,27.2
2018-12-21T12:23:14.395Z,27.1
2018-12-21T12:24:04.705Z,27.1
2018-12-21T12:25:03.084Z,27.1
2018-12-21T12:25:43.703Z,27
2018-12-21T12:26:34.597Z,26.9
2018-12-21T12:27:24.741Z,26.9
2018-12-21T12:28:14.750Z,26.9
2018-12-21T12:29:04.247Z,26.8
2018-12-21T12:29:54.647Z,26.8
2018-12-21T12:30:44.876Z,26.7
2018-12-21T12:31:34.504Z,26.6
2018-12-21T12:32:24.182Z,26.6
2018-12-21T12:33:13.940Z,26.6
2018-12-21T12:34:04.658Z,26.5
2018-12-21T12:34:55.172Z,26.4
2018-12-21T12:35:45.040Z,26.4
2018-12-21T12:36:35.103Z,26.3
2018-12-21T12:37:23.397Z,26.3
2018-12-21T12:38:15.157Z,26.3
2018-12-21T12:39:04.887Z,26.1
2018-12-21T12:39:54.757Z,26.1
2018-12-21T12:40:44.564Z,26.1
2018-12-21T12:41:35.574Z,26
2018-12-21T12:42:24.960Z,25.9
2018-12-21T12:43:14.759Z,25.9
2018-12-21T12:44:04.392Z,25.8
2018-12-21T12:44:54.252Z,25.8
2018-12-21T12:45:44.849Z,25.8
2018-12-21T12:46:35.547Z,25.7
2018-12-21T12:47:25.939Z,25.6
2018-12-21T12:48:15.899Z,25.6
2018-12-21T12:49:05.685Z,25.5
2018-12-21T12:49:55.346Z,25.5
2018-12-21T12:50:46.506Z,25.4
2018-12-21T12:51:36.421Z,25.4
2018-12-21T12:52:26.628Z,25.4
2018-12-21T12:53:16.161Z,25.3
2018-12-21T12:54:06.126Z,25.3
2018-12-21T12:55:06.524Z,25.2
2018-12-21T12:55:46.036Z,25.2
2018-12-21T12:56:36.733Z,25.1
2018-12-21T12:57:26.706Z,25.1
2018-12-21T12:58:16.563Z,25.1
2018-12-21T12:59:06.917Z,25
2018-12-21T12:59:56.463Z,24.9
2018-12-21T13:00:46.693Z,24.9
2018-12-21T13:01:36.434Z,24.9
2018-12-21T13:02:26.463Z,24.8
2018-12-21T13:03:15.748Z,24.8
2018-12-21T13:04:06.596Z,24.8
2018-12-21T13:04:57.175Z,24.7
2018-12-21T13:05:46.682Z,24.7
2018-12-21T13:06:37.053Z,24.6
2018-12-21T13:07:27.117Z,24.6
2018-12-21T13:08:16.380Z,24.6
2018-12-21T13:09:06.940Z,24.5
2018-12-21T13:09:57.775Z,24.5
2018-12-21T13:10:47.868Z,24.4
2018-12-21T13:11:36.833Z,24.4
2018-12-21T13:12:27.555Z,24.4
2018-12-21T13:13:18.033Z,24.3
2018-12-21T13:14:07.262Z,24.3
2018-12-21T13:14:57.009Z,24.3
2018-12-21T13:15:48.215Z,24.2
2018-12-21T13:16:37.897Z,24.2
2018-12-21T13:17:27.532Z,24.2
2018-12-21T13:18:17.062Z,24.1
2018-12-21T13:19:07.427Z,24.1
2018-12-21T13:19:57.463Z,24.1
2018-12-21T13:20:47.602Z,24
2018-12-21T13:21:37.829Z,24
2018-12-21T13:22:27.612Z,23.9
2018-12-21T13:23:18.330Z,23.9
2018-12-21T13:24:07.915Z,23.9
2018-12-21T13:24:57.994Z,23.9
2018-12-21T13:25:48.020Z,23.9
2018-12-21T13:26:38.105Z,23.8
2018-12-21T13:27:29.072Z,23.8
2018-12-21T13:28:17.369Z,23.8
2018-12-21T13:29:08.496Z,23.8
2018-12-21T13:29:58.603Z,23.7
2018-12-21T13:30:47.837Z,23.7
2018-12-21T13:31:38.442Z,23.6
2018-12-21T13:32:29.294Z,23.6
2018-12-21T13:33:18.557Z,23.6
2018-12-21T13:34:09.175Z,23.6
2018-12-21T13:34:59.016Z,23.5
2018-12-21T13:35:49.306Z,23.5
2018-12-21T13:36:41.232Z,23.5
2018-12-21T13:37:29.649Z,23.4
2018-12-21T13:38:19.421Z,23.4
2018-12-21T13:39:09.226Z,23.4
2018-12-21T13:39:59.048Z,23.4
2018-12-21T13:40:49.936Z,23.3
2018-12-21T13:41:38.874Z,23.3
2018-12-21T13:42:31.898Z,23.3
2018-12-21T13:43:19.221Z,23.3
2018-12-21T13:44:10.211Z,23.3
2018-12-21T13:44:59.340Z,23.2
2018-12-21T13:45:49.916Z,23.2
2018-12-21T13:46:39.731Z,23.2
2018-12-21T13:47:29.773Z,23.1
2018-12-21T13:48:20.558Z,23.1
2018-12-21T13:49:10.662Z,23.1
2018-12-21T13:49:59.771Z,23.1
2018-12-21T13:50:49.983Z,23.1
2018-12-21T13:51:39.596Z,23
2018-12-21T13:52:30.466Z,23
2018-12-21T13:53:20.531Z,23
2018-12-21T13:54:10.501Z,22.9
2018-12-21T13:54:59.700Z,22.9
2018-12-21T13:55:50.973Z,22.9
2018-12-21T13:56:40.483Z,22.9
2018-12-21T13:57:30.185Z,22.9
2018-12-21T13:58:20.045Z,22.9
2018-12-21T14:15:10.214Z,22.4
2018-12-21T14:16:00.257Z,22.4
2018-12-21T14:16:50.288Z,22.4
2018-12-21T14:17:40.216Z,22.4
2018-12-21T14:18:31.038Z,22.4
2018-12-21T14:19:20.487Z,22.4
2018-12-21T14:20:10.622Z,22.4
2018-12-21T14:21:00.841Z,22.4
2018-12-21T14:21:50.349Z,22.3
2018-12-21T14:22:40.134Z,22.3
2018-12-21T14:23:30.189Z,22.4
2018-12-21T14:24:21.118Z,22.3
2018-12-21T14:25:11.139Z,22.3
2018-12-21T14:26:00.642Z,22.3
2018-12-21T14:26:51.222Z,22.3
2018-12-21T14:27:41.030Z,22.3
2018-12-21T14:28:31.453Z,22.2
2018-12-21T14:29:21.736Z,22.2
2018-12-21T14:30:10.870Z,22.2
2018-12-21T14:31:01.514Z,22.2
2018-12-21T14:31:51.560Z,22.2
2018-12-21T14:32:41.751Z,22.1
2018-12-21T14:33:31.138Z,22.1
2018-12-21T14:34:21.753Z,22.1
2018-12-21T14:35:11.240Z,22.1
2018-12-21T14:36:01.794Z,22.1
2018-12-21T14:36:51.930Z,22.1
2018-12-21T14:37:42.245Z,22.1
2018-12-21T14:38:31.753Z,22
2018-12-21T14:39:21.824Z,22
2018-12-21T14:40:11.678Z,22
2018-12-21T14:41:00.608Z,22
2018-12-21T14:41:51.505Z,22
2018-12-21T14:42:41.770Z,25.2
2018-12-21T14:43:32.645Z,26.1
2018-12-21T14:44:22.147Z,25.6
2018-12-21T14:45:12.009Z,25.3
2018-12-21T14:46:01.500Z,25.2
2018-12-21T14:46:50.931Z,25.2
2018-12-21T14:47:42.189Z,25.2
2018-12-21T14:48:31.672Z,25.3
2018-12-21T14:49:20.967Z,25.3
2018-12-21T14:50:11.221Z,25.3
2018-12-21T14:51:02.391Z,25.3
2018-12-21T14:51:53.197Z,27.2
2018-12-21T14:52:42.611Z,28.1
2018-12-21T14:54:21.999Z,27.6
2018-12-21T14:55:12.594Z,27.5
2018-12-21T14:56:02.709Z,27.5
2018-12-21T14:56:52.462Z,27.4
2018-12-21T14:57:42.617Z,27.5
2018-12-21T14:58:32.820Z,27.5
2018-12-21T14:59:25.742Z,27.4
2018-12-21T15:00:15.413Z,27.4
2018-12-21T15:01:06.941Z,27.4
2018-12-21T15:01:56.836Z,28.2
2018-12-21T15:02:44.740Z,30.2
2018-12-21T15:03:34.355Z,29.5
2018-12-21T15:04:25.521Z,28.9
2018-12-21T15:05:16.014Z,28.8
2018-12-21T15:06:04.043Z,28.8
2018-12-21T15:06:53.671Z,29.4
2018-12-21T15:07:43.746Z,30.1
2018-12-21T15:08:33.804Z,30.8
2018-12-21T15:09:24.394Z,31.3
2018-12-21T15:10:13.931Z,31.7
2018-12-21T15:11:03.934Z,32.1
2018-12-21T15:11:53.726Z,32.4
2018-12-21T15:12:44.614Z,32.6
2018-12-21T15:13:34.131Z,32.7
2018-12-21T15:14:24.774Z,32.7
2018-12-21T15:15:14.550Z,32.7
2018-12-21T15:16:04.664Z,32.6
2018-12-21T15:16:54.608Z,32.5
2018-12-21T15:17:44.671Z,32.3
2018-12-21T15:18:34.171Z,32.2
2018-12-21T15:19:24.211Z,32
2018-12-21T15:20:14.961Z,31.8
2018-12-21T15:21:04.922Z,31.7
2018-12-21T15:21:54.923Z,31.6
2018-12-21T15:22:44.269Z,31.6
2018-12-21T15:23:35.180Z,31.5
2018-12-21T15:24:23.492Z,31.4
2018-12-21T15:25:15.350Z,31.2
2018-12-21T15:26:05.498Z,31.1
2018-12-21T15:26:54.457Z,30.9
2018-12-21T15:27:44.498Z,30.9
2018-12-21T15:28:34.667Z,30.8
2018-12-21T15:29:24.367Z,30.7
2018-12-21T15:30:15.081Z,30.6
2018-12-21T15:31:05.002Z,30.6
2018-12-21T15:31:55.429Z,30.4
2018-12-21T15:32:45.430Z,30.4
2018-12-21T15:33:35.175Z,30.4
2018-12-21T15:34:25.775Z,30.4
2018-12-21T15:35:15.315Z,30.4
2018-12-21T15:36:04.532Z,30.4
2018-12-21T15:36:55.632Z,30.4
2018-12-21T15:37:45.175Z,30.4
2018-12-21T15:38:35.614Z,30.4
2018-12-21T15:39:25.863Z,30.4
2018-12-21T15:40:15.445Z,30.4
2018-12-21T15:41:06.612Z,30.4
2018-12-21T15:41:56.297Z,30.4
2018-12-21T15:42:45.222Z,30.4
2018-12-21T15:43:36.390Z,30.5
2018-12-21T15:44:25.657Z,30.6
2018-12-21T15:45:16.287Z,30.8
2018-12-21T15:46:06.400Z,30.9
2018-12-21T15:46:56.605Z,31.1
2018-12-21T15:47:46.722Z,31.2
2018-12-21T15:48:36.780Z,31.3
2018-12-21T15:49:26.801Z,31.4
2018-12-21T15:50:16.719Z,31.4
2018-12-21T15:51:05.890Z,31.4
2018-12-21T15:51:56.864Z,31.5
2018-12-21T15:52:46.836Z,31.6
2018-12-21T15:53:34.372Z,31.6
2018-12-21T15:54:26.769Z,31.6
2018-12-21T15:55:17.034Z,31.7
2018-12-21T15:56:07.226Z,31.8
2018-12-21T15:56:57.303Z,31.9
2018-12-21T15:57:45.766Z,32.1
2018-12-21T15:58:36.943Z,32.4
2018-12-21T15:59:26.933Z,32.9
2018-12-21T16:00:19.654Z,33.3
2018-12-21T16:01:07.714Z,33.8
2018-12-21T16:01:57.633Z,34.1
2018-12-21T16:02:46.656Z,34.4
2018-12-21T16:03:37.726Z,34.5
2018-12-21T16:04:26.984Z,34.8
2018-12-21T16:05:17.887Z,35
2018-12-21T16:06:07.646Z,35.1
2018-12-21T16:06:58.295Z,35.2
2018-12-21T16:07:48.568Z,35.3
2018-12-21T16:08:38.396Z,35.4
2018-12-21T16:09:28.186Z,35.5
2018-12-21T16:10:18.218Z,35.5
2018-12-21T16:11:08.272Z,35.5
2018-12-21T16:11:58.602Z,35.5
2018-12-21T16:12:48.215Z,35.4
2018-12-21T16:13:38.161Z,36
2018-12-21T16:14:38.353Z,37.1
2018-12-21T16:15:18.348Z,35.7
2018-12-21T16:16:08.331Z,35.1
2018-12-21T16:16:57.763Z,35.3
2018-12-21T16:17:47.893Z,35.6
2018-12-21T16:18:37.126Z,35.8
2018-12-21T16:19:28.034Z,35.8
2018-12-21T16:20:17.930Z,35.9
2018-12-21T16:21:08.904Z,36.6
2018-12-21T16:21:58.475Z,37.6